Tulsa, OK (74101)

8:59 AM CST on December 03, 2016 (GMT -0600)
Maple Ridge | | Change Station

Elev 738 ft 36.14 °N, 95.98 °W | Updated 14 minutes ago

Overcast
Overcast
47.6 °F
Feels Like 48 °F
N
0.0
Wind Variable Wind from SSE
Gusts 1.0 mph

Today
High -- | Low -- °F
--% Chance of Precip.
Yesterday
High -- | Low -- °F
Precip. -- in
Pressure 30.21 in
Visibility 10.0 miles
Clouds Overcast 5000 ft
Windchill 48 °F
Dew Point 38 °F
Humidity 70%
Rainfall 0.00 in
Snow Depth Not available.
7:18 AM 5:09 PM
Waxing Crescent, 15% visible
METAR KTUL 031453Z 00000KT 10SM OVC050 09/03 A3020 RMK AO2 SLP228 T00940033 53001
Pressure 30.21 in
Visibility 10.0 miles
Clouds Overcast 5000 ft
Windchill 48 °F
Dew Point 38 °F
Humidity 70%
Rainfall 0.00 in
Snow Depth Not available.
7:18 AM 5:09 PM
Waxing Crescent, 15% visible
METAR KTUL 031453Z 00000KT 10SM OVC050 09/03 A3020 RMK AO2 SLP228 T00940033 53001

10-Day Weather Forecast

Almanac

Astronomy

Dec. 03, 2016 Rise Set
Actual Time
Civil Twilight
Nautical Twilight
Astronomical Twilight
Moon
Length of Visible Light
Length of Day
Tomorrow will be .
, % of the Moon is Illuminated

Today's Extremes

State Highs State Lows

Community

WunderPhotos

Upload Photos

1,955,449 photos uploaded!

WunderBlog® & News

Nearby

Air Quality

  Air Quality AQ Index Pollutant
Not available.

Snow Depth

Station Depth Elevation

Earthquake Activity

City Distance Mag. Time & Date
Minimum magnitude displayed is 2.5.

Coastal Water Temperatures

Place Temperature

Stations

Nearby Weather Stations

Station Location Temp. Windchill Dew Point Humidity Wind Precip. Elev Updated Type
                   

Watches & Warnings

There are currently no watches in effect.